createdAt,value
2019-01-08T00:00:03.844Z,2.90
2019-01-08T00:02:35.109Z,2.90
2019-01-08T00:05:04.679Z,2.70
2019-01-08T00:07:34.175Z,2.60
2019-01-08T00:10:03.683Z,2.40
2019-01-08T00:12:33.155Z,2.58
2019-01-08T00:15:02.640Z,2.50
2019-01-08T00:17:32.126Z,2.00
2019-01-08T00:20:01.595Z,2.40
2019-01-08T00:22:31.059Z,2.90
2019-01-08T00:25:00.549Z,2.80
2019-01-08T00:27:30.026Z,2.70
2019-01-08T00:29:59.505Z,2.77
2019-01-08T00:32:29.006Z,3.00
2019-01-08T00:34:58.481Z,3.17
2019-01-08T00:37:27.954Z,3.20
2019-01-08T00:39:57.430Z,3.30
2019-01-08T00:42:26.911Z,3.10
2019-01-08T00:44:56.407Z,3.75
2019-01-08T00:47:25.898Z,3.77
2019-01-08T00:49:55.484Z,3.55
2019-01-08T00:52:24.987Z,4.10
2019-01-08T00:54:54.479Z,3.70
2019-01-08T00:57:23.979Z,3.80
2019-01-08T00:59:53.455Z,3.72
2019-01-08T01:02:22.966Z,3.75
2019-01-08T01:04:52.472Z,3.70
2019-01-08T01:07:21.979Z,3.93
2019-01-08T01:09:51.454Z,4.67
2019-01-08T01:12:20.949Z,4.45
2019-01-08T01:14:50.475Z,3.75
2019-01-08T01:17:19.957Z,4.78
2019-01-08T01:19:49.469Z,3.67
2019-01-08T01:22:18.958Z,4.50
2019-01-08T01:24:48.439Z,4.05
2019-01-08T01:27:17.951Z,3.83
2019-01-08T01:29:47.444Z,4.45
2019-01-08T01:32:16.951Z,4.25
2019-01-08T01:34:46.433Z,4.22
2019-01-08T01:37:15.911Z,4.60
2019-01-08T01:39:45.400Z,4.60
2019-01-08T01:42:14.935Z,4.90
2019-01-08T01:44:44.423Z,4.83
2019-01-08T01:47:13.930Z,4.87
2019-01-08T01:49:43.394Z,5.00
2019-01-08T01:52:12.869Z,4.80
2019-01-08T01:54:42.392Z,4.58
2019-01-08T01:57:11.876Z,4.92
2019-01-08T01:59:41.347Z,5.10
2019-01-08T02:02:10.822Z,5.00
2019-01-08T02:04:40.356Z,4.80
2019-01-08T02:07:09.855Z,5.20
2019-01-08T02:09:39.320Z,5.30
2019-01-08T02:12:08.821Z,5.62
2019-01-08T02:14:38.679Z,5.85
2019-01-08T02:17:08.191Z,5.37
2019-01-08T02:19:37.687Z,5.20
2019-01-08T02:22:07.177Z,5.83
2019-01-08T02:24:36.654Z,5.80
2019-01-08T02:27:06.137Z,5.67
2019-01-08T02:29:35.610Z,5.78
2019-01-08T02:32:05.100Z,6.08
2019-01-08T02:34:34.582Z,5.80
2019-01-08T02:37:04.061Z,5.90
2019-01-08T02:39:33.526Z,6.30
2019-01-08T02:42:03.159Z,6.17
2019-01-08T02:44:32.700Z,5.67
2019-01-08T02:47:02.219Z,5.72
2019-01-08T02:49:31.681Z,5.80
2019-01-08T02:52:01.160Z,6.72
2019-01-08T02:54:30.630Z,5.50
2019-01-08T02:57:00.104Z,6.40
2019-01-08T02:59:29.573Z,4.80
2019-01-08T03:01:59.113Z,6.17
2019-01-08T03:04:28.544Z,5.50
2019-01-08T03:06:58.062Z,6.15
2019-01-08T03:09:27.549Z,5.60
2019-01-08T03:11:57.116Z,6.17
2019-01-08T03:14:26.610Z,5.97
2019-01-08T03:16:56.082Z,5.95
2019-01-08T03:19:25.551Z,5.03
2019-01-08T03:21:55.017Z,5.08
2019-01-08T03:24:24.509Z,5.25
2019-01-08T03:26:54.205Z,5.90
2019-01-08T03:29:23.675Z,5.72
2019-01-08T03:31:53.152Z,6.37
2019-01-08T03:34:22.637Z,5.75
2019-01-08T03:36:52.114Z,6.22
2019-01-08T03:39:21.600Z,5.60
2019-01-08T03:41:51.060Z,5.20
2019-01-08T03:44:20.545Z,5.60
2019-01-08T03:46:50.025Z,4.97
2019-01-08T03:49:19.507Z,5.70
2019-01-08T03:51:48.992Z,6.40
2019-01-08T03:54:18.478Z,5.80
2019-01-08T03:56:47.949Z,6.42
2019-01-08T03:59:17.449Z,5.28
2019-01-08T04:01:46.917Z,5.60
2019-01-08T04:04:16.428Z,5.60
2019-01-08T04:06:45.899Z,5.45
2019-01-08T04:09:15.390Z,5.70
2019-01-08T04:11:44.861Z,5.53
2019-01-08T04:14:14.517Z,5.45
2019-01-08T04:16:44.008Z,5.10
2019-01-08T04:19:13.482Z,5.22
2019-01-08T04:21:44.024Z,4.67
2019-01-08T04:24:13.522Z,5.65
2019-01-08T04:26:43.010Z,4.58
2019-01-08T04:29:12.519Z,5.50
2019-01-08T04:31:42.006Z,5.40
2019-01-08T04:34:11.498Z,5.20
2019-01-08T04:36:40.970Z,5.30
2019-01-08T04:39:10.464Z,4.95
2019-01-08T04:41:39.925Z,4.53
2019-01-08T04:44:09.411Z,4.97
2019-01-08T04:46:38.890Z,5.22
2019-01-08T04:49:08.371Z,5.67
2019-01-08T04:51:37.997Z,5.00
2019-01-08T04:54:07.425Z,4.90
2019-01-08T04:56:36.897Z,4.70
2019-01-08T04:59:06.874Z,5.60
2019-01-08T05:01:36.358Z,5.10
2019-01-08T05:04:05.869Z,5.03
2019-01-08T05:06:35.353Z,5.08
2019-01-08T05:09:06.017Z,5.50
2019-01-08T05:11:35.497Z,4.80
2019-01-08T05:14:05.008Z,4.60
2019-01-08T05:16:34.517Z,5.00
2019-01-08T05:19:04.007Z,5.67
2019-01-08T05:21:33.472Z,4.80
2019-01-08T05:24:02.975Z,4.72
2019-01-08T05:26:32.446Z,4.10
2019-01-08T05:29:01.977Z,5.10
2019-01-08T05:31:31.438Z,6.03
2019-01-08T05:34:00.938Z,4.80
2019-01-08T05:36:30.412Z,4.60
2019-01-08T05:38:59.876Z,4.87
2019-01-08T05:41:29.344Z,4.97
2019-01-08T05:43:58.824Z,4.60
2019-01-08T05:46:28.309Z,4.00
2019-01-08T05:48:57.799Z,3.85
2019-01-08T05:51:27.321Z,3.70
2019-01-08T05:53:56.779Z,4.40
2019-01-08T05:56:26.254Z,4.22
2019-01-08T05:58:55.730Z,4.00
2019-01-08T06:01:25.201Z,3.67
2019-01-08T06:03:54.837Z,4.22
2019-01-08T06:06:24.369Z,3.70
2019-01-08T06:08:53.906Z,4.00
2019-01-08T06:11:23.377Z,3.50
2019-01-08T06:13:52.851Z,3.70
2019-01-08T06:16:22.331Z,3.40
2019-01-08T06:18:52.261Z,4.33
2019-01-08T06:21:21.736Z,3.93
2019-01-08T06:23:51.218Z,4.87
2019-01-08T06:26:20.689Z,4.05
2019-01-08T06:28:50.168Z,4.15
2019-01-08T06:31:19.664Z,4.70
2019-01-08T06:33:49.118Z,4.42
2019-01-08T06:36:18.598Z,5.25
2019-01-08T06:38:48.066Z,4.10
2019-01-08T06:41:17.552Z,3.85
2019-01-08T06:43:47.021Z,4.70
2019-01-08T06:46:16.502Z,4.45
2019-01-08T06:48:45.956Z,4.00
2019-01-08T06:51:15.448Z,5.30
2019-01-08T06:53:44.928Z,4.72
2019-01-08T06:56:14.749Z,5.35
2019-01-08T06:58:44.266Z,5.08
2019-01-08T07:01:13.737Z,4.45
2019-01-08T07:03:43.203Z,4.35
2019-01-08T07:06:12.677Z,4.80
2019-01-08T07:08:42.155Z,4.70
2019-01-08T07:11:11.655Z,4.72
2019-01-08T07:13:41.136Z,4.60
2019-01-08T07:16:10.631Z,4.47
2019-01-08T07:18:40.153Z,4.50
2019-01-08T07:21:09.594Z,4.80
2019-01-08T07:23:39.095Z,4.95
2019-01-08T07:26:08.554Z,4.70
2019-01-08T07:28:38.038Z,5.20
2019-01-08T07:31:07.515Z,4.50
2019-01-08T07:33:37.010Z,4.75
2019-01-08T07:36:06.489Z,4.90
2019-01-08T07:38:36.008Z,5.43
2019-01-08T07:41:05.509Z,5.20
2019-01-08T07:43:34.997Z,5.37
2019-01-08T07:46:04.493Z,5.28
2019-01-08T07:48:33.999Z,7.45
2019-01-08T07:51:03.495Z,5.80
2019-01-08T07:53:32.980Z,5.00
2019-01-08T07:56:02.476Z,5.20
2019-01-08T07:58:31.939Z,4.85
2019-01-08T08:01:01.399Z,5.95
2019-01-08T08:03:30.872Z,5.70
2019-01-08T08:06:00.342Z,5.42
2019-01-08T08:08:29.812Z,5.20
2019-01-08T08:10:59.286Z,6.20
2019-01-08T08:13:28.882Z,6.20
2019-01-08T08:15:58.383Z,5.15
2019-01-08T08:18:27.837Z,4.67
2019-01-08T08:20:57.305Z,5.47
2019-01-08T08:23:26.804Z,5.50
2019-01-08T08:25:56.303Z,5.95
2019-01-08T08:28:25.803Z,5.72
2019-01-08T08:30:58.923Z,5.40
2019-01-08T08:33:27.477Z,5.40
2019-01-08T08:35:56.966Z,5.63
2019-01-08T08:38:26.491Z,5.40
2019-01-08T08:40:56.057Z,4.37
2019-01-08T08:43:25.551Z,4.60
2019-01-08T08:45:55.053Z,4.60
2019-01-08T08:48:24.553Z,4.53
2019-01-08T08:50:54.129Z,5.00
2019-01-08T08:53:23.635Z,4.40
2019-01-08T08:55:53.113Z,4.77
2019-01-08T08:58:22.583Z,4.60
2019-01-08T09:00:52.064Z,4.80
2019-01-08T09:03:21.550Z,5.10
2019-01-08T09:05:51.039Z,4.80
2019-01-08T09:08:21.307Z,4.83
2019-01-08T09:10:50.860Z,4.40
2019-01-08T09:13:20.358Z,4.40
2019-01-08T09:15:49.838Z,4.80
2019-01-08T09:18:19.321Z,4.65
2019-01-08T09:20:48.804Z,4.80
2019-01-08T09:23:18.314Z,4.77
2019-01-08T09:25:47.791Z,4.80
2019-01-08T09:28:17.313Z,4.40
2019-01-08T09:30:46.781Z,3.65
2019-01-08T09:33:16.318Z,4.50
2019-01-08T09:35:45.807Z,4.33
2019-01-08T09:38:15.286Z,4.50
2019-01-08T09:40:44.861Z,4.35
2019-01-08T09:43:14.442Z,3.90
2019-01-08T09:45:43.921Z,4.28
2019-01-08T09:48:13.385Z,4.13
2019-01-08T09:50:42.862Z,4.77
2019-01-08T09:53:12.347Z,3.95
2019-01-08T09:55:41.874Z,4.20
2019-01-08T09:58:11.369Z,5.05
2019-01-08T10:00:40.881Z,4.53
2019-01-08T10:03:10.386Z,4.73
2019-01-08T10:05:39.904Z,4.07
2019-01-08T10:08:09.415Z,4.60
2019-01-08T10:10:38.906Z,4.30
2019-01-08T10:13:08.397Z,5.05
2019-01-08T10:15:37.909Z,5.20
2019-01-08T10:18:07.408Z,4.97
2019-01-08T10:20:36.938Z,5.75
2019-01-08T10:23:10.159Z,5.08
2019-01-08T10:25:37.673Z,5.12
2019-01-08T10:28:07.182Z,5.00
2019-01-08T10:30:36.695Z,4.45
2019-01-08T10:33:06.176Z,4.20
2019-01-08T10:35:35.676Z,5.60
2019-01-08T10:38:05.169Z,8.73
2019-01-08T10:40:34.684Z,4.97
2019-01-08T10:43:04.218Z,5.87
2019-01-08T10:45:34.584Z,5.58
2019-01-08T10:48:04.083Z,5.27
2019-01-08T10:50:33.566Z,4.97
2019-01-08T10:53:03.052Z,4.83
2019-01-08T10:55:32.561Z,4.60
2019-01-08T10:58:02.034Z,4.33
2019-01-08T11:00:31.567Z,5.20
2019-01-08T11:03:01.062Z,4.97
2019-01-08T11:05:31.598Z,4.30
2019-01-08T11:08:01.089Z,4.47
2019-01-08T11:10:30.582Z,5.40
2019-01-08T11:13:00.078Z,4.90
2019-01-08T11:15:29.569Z,4.95
2019-01-08T11:17:59.100Z,4.47
2019-01-08T11:20:28.640Z,4.33
2019-01-08T11:22:58.123Z,3.80
2019-01-08T11:25:27.602Z,3.57
2019-01-08T11:27:58.053Z,3.50
2019-01-08T11:30:27.555Z,3.30
2019-01-08T11:32:57.051Z,2.93
2019-01-08T11:35:26.550Z,4.63
2019-01-08T11:37:56.063Z,4.40
2019-01-08T11:40:25.555Z,4.20
2019-01-08T11:42:55.052Z,4.62
2019-01-08T11:45:24.582Z,6.10
2019-01-08T11:47:54.084Z,18.63
2019-01-08T11:50:23.563Z,8.23
2019-01-08T11:52:53.120Z,25.62
2019-01-08T11:55:22.706Z,7.53
2019-01-08T11:57:52.169Z,12.37
2019-01-08T12:00:21.713Z,8.87
2019-01-08T12:02:51.212Z,11.40
2019-01-08T12:05:20.692Z,7.47
2019-01-08T12:07:50.193Z,6.92
2019-01-08T12:10:20.768Z,8.08
2019-01-08T12:12:50.247Z,8.13
2019-01-08T12:15:19.768Z,8.50
2019-01-08T12:17:50.226Z,9.00
2019-01-08T12:20:19.812Z,8.63
2019-01-08T12:22:49.294Z,7.92
2019-01-08T12:25:18.819Z,8.60
2019-01-08T12:27:48.317Z,8.77
2019-01-08T12:30:17.814Z,8.97
2019-01-08T12:32:47.366Z,8.45
2019-01-08T12:35:16.863Z,7.50
2019-01-08T12:37:46.370Z,7.87
2019-01-08T12:40:15.971Z,8.60
2019-01-08T12:42:45.486Z,8.23
2019-01-08T12:45:14.980Z,8.33
2019-01-08T12:47:44.472Z,7.00
2019-01-08T12:50:13.970Z,7.80
2019-01-08T12:52:43.489Z,7.25
2019-01-08T12:55:13.196Z,8.13
2019-01-08T12:57:42.642Z,7.83
2019-01-08T13:00:12.753Z,6.58
2019-01-08T13:02:42.352Z,5.43
2019-01-08T13:05:12.965Z,6.90
2019-01-08T13:07:42.450Z,6.47
2019-01-08T13:10:11.946Z,6.70
2019-01-08T13:12:41.501Z,5.67
2019-01-08T13:15:10.996Z,5.47
2019-01-08T13:17:40.505Z,5.83
2019-01-08T13:20:09.990Z,5.97
2019-01-08T13:22:39.474Z,5.20
2019-01-08T13:25:09.078Z,3.83
2019-01-08T13:27:38.640Z,4.00
2019-01-08T13:30:09.073Z,4.90
2019-01-08T13:32:38.569Z,4.83
2019-01-08T13:35:08.136Z,4.97
2019-01-08T13:37:37.616Z,6.28
2019-01-08T13:40:07.210Z,6.10
2019-01-08T13:42:36.692Z,5.80
2019-01-08T13:45:07.110Z,3.90
2019-01-08T13:47:36.588Z,5.25
2019-01-08T13:50:07.536Z,4.97
2019-01-08T13:52:37.341Z,5.07
2019-01-08T13:55:06.844Z,5.28
2019-01-08T13:57:36.330Z,5.85
2019-01-08T14:00:06.664Z,5.83
2019-01-08T14:02:36.217Z,6.07
2019-01-08T14:05:05.856Z,5.90
2019-01-08T14:07:35.325Z,7.10
2019-01-08T14:10:05.013Z,6.50
2019-01-08T14:12:34.494Z,6.25
2019-01-08T14:15:04.106Z,6.20
2019-01-08T14:17:33.917Z,7.00
2019-01-08T14:20:03.450Z,6.95
2019-01-08T14:22:32.945Z,7.80
2019-01-08T14:25:02.447Z,8.25
2019-01-08T14:27:31.940Z,7.17
2019-01-08T14:30:01.454Z,7.25
2019-01-08T14:32:30.937Z,8.05
2019-01-08T14:35:01.446Z,8.00
2019-01-08T14:37:30.948Z,6.50
2019-01-08T14:40:00.529Z,5.03
2019-01-08T14:42:31.080Z,4.43
2019-01-08T14:45:00.637Z,3.80
2019-01-08T14:47:30.147Z,3.40
2019-01-08T14:50:02.326Z,3.33
2019-01-08T14:52:31.813Z,3.55
2019-01-08T14:55:01.300Z,3.85
2019-01-08T14:57:31.783Z,4.33
2019-01-08T15:00:01.356Z,4.70
2019-01-08T15:02:30.838Z,5.42
2019-01-08T15:05:00.318Z,5.78
2019-01-08T15:07:29.895Z,6.12
2019-01-08T15:09:59.378Z,6.22
2019-01-08T15:12:28.875Z,5.70
2019-01-08T15:14:58.379Z,5.90
2019-01-08T15:17:28.371Z,5.10
2019-01-08T15:19:57.850Z,5.53
2019-01-08T15:22:27.312Z,6.20
2019-01-08T15:24:56.791Z,5.80
2019-01-08T15:27:26.263Z,5.27
2019-01-08T15:29:55.744Z,5.60
2019-01-08T15:32:25.225Z,5.35
2019-01-08T15:34:54.722Z,4.97
2019-01-08T15:37:24.214Z,5.05
2019-01-08T15:39:53.711Z,4.67
2019-01-08T15:42:23.211Z,6.00
2019-01-08T15:44:52.715Z,5.15
2019-01-08T15:47:22.221Z,5.58
2019-01-08T15:49:51.746Z,4.80
2019-01-08T15:52:21.264Z,4.63
2019-01-08T15:54:50.787Z,4.45
2019-01-08T15:57:20.297Z,4.50
2019-01-08T15:59:49.802Z,5.92
2019-01-08T16:02:19.294Z,5.70
2019-01-08T16:04:48.800Z,6.25
2019-01-08T16:07:18.290Z,6.05
2019-01-08T16:09:48.930Z,6.20
2019-01-08T16:12:18.566Z,5.62
2019-01-08T16:14:48.658Z,5.90
2019-01-08T16:17:18.165Z,6.80
2019-01-08T16:19:47.644Z,6.95
2019-01-08T16:22:17.139Z,6.95
2019-01-08T16:24:46.618Z,6.90
2019-01-08T16:27:16.129Z,7.12
2019-01-08T16:29:45.619Z,6.47
2019-01-08T16:32:15.139Z,7.40
2019-01-08T16:34:44.626Z,6.73
2019-01-08T16:37:14.220Z,7.70
2019-01-08T16:39:43.724Z,7.05
2019-01-08T16:42:13.219Z,7.33
2019-01-08T16:44:42.703Z,6.97
2019-01-08T16:47:12.197Z,7.40
2019-01-08T16:49:41.709Z,6.60
2019-01-08T16:52:11.700Z,6.55
2019-01-08T16:54:41.180Z,6.93
2019-01-08T16:57:10.673Z,6.83
2019-01-08T16:59:40.155Z,6.58
2019-01-08T17:02:09.647Z,5.70
2019-01-08T17:04:39.137Z,5.83
2019-01-08T17:07:08.661Z,6.10
2019-01-08T17:09:38.156Z,6.22
2019-01-08T17:12:07.861Z,4.70
2019-01-08T17:14:37.333Z,5.33
2019-01-08T17:17:06.830Z,3.77
2019-01-08T17:19:36.314Z,4.20
2019-01-08T17:22:05.824Z,3.50
2019-01-08T17:24:35.303Z,3.70
2019-01-08T17:27:04.798Z,3.87
2019-01-08T17:29:34.278Z,3.60
2019-01-08T17:32:03.789Z,4.87
2019-01-08T17:34:33.275Z,4.17
2019-01-08T17:37:02.761Z,4.92
2019-01-08T17:39:32.275Z,3.72
2019-01-08T17:42:01.759Z,4.40
2019-01-08T17:44:31.262Z,4.70
2019-01-08T17:47:00.781Z,3.20
2019-01-08T17:49:30.288Z,3.22
2019-01-08T17:51:59.810Z,3.67
2019-01-08T17:54:29.299Z,4.30
2019-01-08T17:56:58.809Z,4.33
2019-01-08T17:59:28.329Z,3.50
2019-01-08T18:02:03.421Z,3.30
2019-01-08T18:04:32.917Z,2.73
2019-01-08T18:07:02.407Z,2.80
2019-01-08T18:09:31.899Z,3.93
2019-01-08T18:12:01.382Z,2.67
2019-01-08T18:14:30.883Z,3.10
2019-01-08T18:17:01.380Z,3.30
2019-01-08T18:19:30.899Z,3.98
2019-01-08T18:22:00.376Z,3.70
2019-01-08T18:24:29.866Z,4.50
2019-01-08T18:27:00.339Z,5.10
2019-01-08T18:29:29.842Z,4.60
2019-01-08T18:31:59.329Z,4.85
2019-01-08T18:34:28.816Z,4.53
2019-01-08T18:36:58.294Z,5.80
2019-01-08T18:39:27.766Z,5.20
2019-01-08T18:41:57.261Z,5.10
2019-01-08T18:44:26.745Z,4.50
2019-01-08T18:46:56.237Z,4.90
2019-01-08T18:49:25.720Z,3.50
2019-01-08T18:51:59.516Z,3.60
2019-01-08T18:54:28.965Z,3.60
2019-01-08T18:56:58.469Z,4.40
2019-01-08T18:59:27.978Z,4.15
2019-01-08T19:01:57.491Z,4.60
2019-01-08T19:04:26.989Z,5.20
2019-01-08T19:06:56.488Z,5.47
2019-01-08T19:09:30.045Z,4.97
2019-01-08T19:12:00.191Z,6.08
2019-01-08T19:14:37.211Z,6.12
2019-01-08T19:17:08.385Z,5.17
2019-01-08T19:19:37.867Z,6.10
2019-01-08T19:22:07.340Z,6.72
2019-01-08T19:24:36.832Z,5.62
2019-01-08T19:27:07.370Z,5.80
2019-01-08T19:29:36.847Z,6.87
2019-01-08T19:32:06.620Z,6.20
2019-01-08T19:34:36.127Z,5.83
2019-01-08T19:37:05.639Z,6.50
2019-01-08T19:39:35.138Z,6.63
2019-01-08T19:42:04.766Z,8.07
2019-01-08T19:44:34.276Z,7.23
2019-01-08T19:47:03.791Z,7.63
2019-01-08T19:49:33.281Z,6.33
2019-01-08T19:52:02.779Z,7.20
2019-01-08T19:54:32.278Z,6.83
2019-01-08T19:57:02.673Z,7.50
2019-01-08T19:59:32.183Z,6.35
2019-01-08T20:02:01.662Z,6.90
2019-01-08T20:04:31.205Z,6.70
2019-01-08T20:07:00.727Z,6.40
2019-01-08T20:09:30.214Z,6.30
2019-01-08T20:11:59.707Z,6.63
2019-01-08T20:14:30.416Z,6.20
2019-01-08T20:17:02.371Z,6.20
2019-01-08T20:19:31.938Z,4.97
2019-01-08T20:22:01.432Z,5.20
2019-01-08T20:24:30.946Z,4.65
2019-01-08T20:27:00.728Z,5.07
2019-01-08T20:29:43.868Z,4.97
2019-01-08T20:32:16.661Z,5.10
2019-01-08T20:34:48.903Z,5.20
2019-01-08T20:37:18.656Z,3.80
2019-01-08T20:39:48.355Z,3.20
2019-01-08T20:42:17.997Z,2.93
2019-01-08T20:44:47.487Z,2.12
2019-01-08T20:47:17.061Z,2.20
2019-01-08T20:49:46.741Z,2.30
2019-01-08T20:52:17.320Z,2.00
2019-01-08T20:54:46.977Z,1.87
2019-01-08T20:57:16.579Z,1.97
2019-01-08T20:59:46.116Z,2.42
2019-01-08T21:02:15.703Z,2.17
2019-01-08T21:04:45.301Z,2.10
2019-01-08T21:07:14.923Z,2.10
2019-01-08T21:09:44.435Z,2.63
2019-01-08T21:12:14.060Z,2.63
2019-01-08T21:14:46.831Z,2.90
2019-01-08T21:17:16.373Z,2.60
2019-01-08T21:19:46.230Z,3.00
2019-01-08T21:22:18.107Z,2.60
2019-01-08T21:24:48.775Z,2.95
2019-01-08T21:27:18.549Z,3.10
2019-01-08T21:29:48.056Z,3.20
2019-01-08T21:32:17.557Z,3.00
2019-01-08T21:34:47.174Z,3.15
2019-01-08T21:37:16.723Z,3.07
2019-01-08T21:39:46.290Z,2.90
2019-01-08T21:42:15.886Z,2.60
2019-01-08T21:44:46.385Z,3.07
2019-01-08T21:47:16.040Z,3.40
2019-01-08T21:49:45.541Z,2.50
2019-01-08T21:52:15.087Z,3.00
2019-01-08T21:54:44.593Z,2.00
2019-01-08T21:57:14.199Z,1.70
2019-01-08T21:59:43.688Z,2.33
2019-01-08T22:02:14.759Z,2.25
2019-01-08T22:04:52.757Z,2.30
2019-01-08T22:07:15.487Z,2.90
2019-01-08T22:09:44.921Z,2.60
2019-01-08T22:12:14.417Z,1.87
2019-01-08T22:14:44.868Z,1.73
2019-01-08T22:17:14.391Z,1.93
2019-01-08T22:19:43.951Z,2.20
2019-01-08T22:22:13.432Z,1.85
2019-01-08T22:24:42.931Z,2.55
2019-01-08T22:27:12.421Z,2.10
2019-01-08T22:29:41.920Z,2.00
2019-01-08T22:32:11.484Z,1.97
2019-01-08T22:34:40.969Z,2.73
2019-01-08T22:37:10.480Z,3.07
2019-01-08T22:39:39.984Z,2.43
2019-01-08T22:42:09.961Z,2.57
2019-01-08T22:44:39.450Z,2.60
2019-01-08T22:47:09.332Z,2.35
2019-01-08T22:49:38.823Z,3.08
2019-01-08T22:52:08.322Z,2.87
2019-01-08T22:54:38.703Z,3.00
2019-01-08T22:57:08.193Z,2.90
2019-01-08T22:59:38.366Z,2.60
2019-01-08T23:02:08.084Z,3.50
2019-01-08T23:04:37.580Z,3.03
2019-01-08T23:07:07.151Z,2.10
2019-01-08T23:09:36.725Z,3.07
2019-01-08T23:12:06.222Z,2.80
2019-01-08T23:14:35.704Z,2.80
2019-01-08T23:17:05.265Z,3.00
2019-01-08T23:19:34.762Z,2.92
2019-01-08T23:22:04.327Z,3.20
2019-01-08T23:24:34.823Z,3.00
2019-01-08T23:27:04.366Z,3.05
2019-01-08T23:29:33.873Z,3.02
2019-01-08T23:32:03.386Z,2.83
2019-01-08T23:34:32.896Z,2.92
2019-01-08T23:37:02.386Z,3.90
2019-01-08T23:39:32.945Z,3.20
2019-01-08T23:42:02.428Z,2.80
2019-01-08T23:44:31.912Z,2.53
2019-01-08T23:47:01.384Z,2.70
2019-01-08T23:49:30.867Z,1.90
2019-01-08T23:52:16.471Z,2.40
2019-01-08T23:54:46.045Z,2.20
2019-01-08T23:57:16.810Z,2.30
2019-01-08T23:59:46.299Z,2.30
